MHLC

Goloson International Airport

La Ceiba, Honduras
TAF MHLC 251110Z 2512/2612 15004KT 9999 SCT022 TX32/2519Z TN23/2612Z BECMG 2513/2515 00000KT BECMG 2518/2520 07012KT SCT026TCU SCT080 TEMPO 2523/2605 5000 -TSRA SCT024CB BKN080 BECMG 2605/2607 11004KT 8000 VCSH SCT022 BKN080
Issued Valid From Valid To
Sep-25 @ 11:10 UTC
(6 hours ago)
Sep-25 @ 12:00 UTC
(5 hours ago)
Sep-26 @ 12:00 UTC
(in 19 hours)
Expired Click to View Sep-25 @ 12:00 to Sep-25 @ 13:00
TAF MHLC 251110Z 2512/2612 15004KT 9999 SCT022 TX32/2519Z TN23/2612Z
Wind Visibility Clouds
150° at 4 knots 10,000+ meters
  • Scattered at 2,200' AGL
Becoming Sep-25 @ 13:00 to Sep-25 @ 18:00
BECMG 2513/2515 00000KT
Visibility Clouds
10,000+ meters
  • Scattered at 2,200' AGL
Becoming Sep-25 @ 18:00 to Sep-26 @ 05:00
BECMG 2518/2520 07012KT SCT026TCU SCT080
Wind Visibility Clouds
70° at 12 knots 10,000+ meters
  • Scattered at 2,600' AGL
  • Scattered at 8,000' AGL
Temporary Sep-25 @ 23:00 to Sep-26 @ 05:00
TEMPO 2523/2605 5000 -TSRA SCT024CB BKN080
Visibility Clouds Conditions
5,005 meters
  • Scattered at 2,400' AGL
  • Broken at 8,000' AGL
  • Light Thunderstorm
  • Light Rain
Becoming Sep-26 @ 05:00 to Sep-26 @ 12:00
BECMG 2605/2607 11004KT 8000 VCSH SCT022 BKN080
Wind Visibility Clouds
110° at 4 knots 7,998 meters
  • Scattered at 2,200' AGL
  • Broken at 8,000' AGL
TAF MHLC 251110Z 2512/2612 15004KT 9999 SCT022 TX32/2519Z TN23/2612Z BECMG 2513/2515 00000KT BECMG 2518/2520 07012KT SCT026TCU SCT080 TEMPO 2523/2605 5000 -TSRA SCT024CB BKN080 BECMG 2605/2607 11004KT 8000 VCSH SCT022 BKN080
Issued Sep-25 @ 11:10 UTC
(6 hours ago)
Valid From Sep-25 @ 12:00 UTC
(5 hours ago)
Valid To Sep-26 @ 12:00 UTC
(in 19 hours)
Sep-25 @ 12:00 - Sep-25 @ 13:00
Wind Visibility
150° at 4 knots 10,000+ meters
Clouds
  • Scattered at 2,200' AGL
Becoming Sep-25 @ 13:00 - Sep-25 @ 18:00
Clouds
  • Scattered at 2,200' AGL
Becoming Sep-25 @ 18:00 - Sep-26 @ 05:00
Wind Visibility
70° at 12 knots 10,000+ meters
Clouds
  • Scattered at 2,600' AGL
  • Scattered at 8,000' AGL
Temporary Sep-25 @ 23:00 - Sep-26 @ 05:00
Clouds
  • Scattered at 2,400' AGL
  • Broken at 8,000' AGL
Conditions
  • Light Thunderstorm
  • Light Rain
Becoming Sep-26 @ 05:00 - Sep-26 @ 12:00
Wind Visibility
110° at 4 knots 7,998 meters
Clouds
  • Scattered at 2,200' AGL
  • Broken at 8,000' AGL